Airfield :
LOGIN :

Register | Disclaimer

   EN    FR    IT 

 










Legend :    VFR   Marginal VFR   IFR   Intensive IFR   Very Intensive IFR
Visi :
Ceiling :
>= 8 km
>= 3000ft
5 to 8 km
1000 to 3000 ft
1500m to 5 km
500 to 1000 ft
800 to 1500m
200 to 500 ft
< 800m
< 200 ft
Symbols :   Thunderstorms  Fog  Heavy snow  Heavy precipitations  Wind > 20 kt
SIGMETs :     Misc.  Thunderstorms  Icing  Turbulence  Mountain Waves  Volcanic Ashes







- Airport Elevation : 219 ft
- IATA code : DNR
- Download approach charts


LFRD - Dinard

CURRENT METAR :
  • 220200Z AUTO 17005KT 0350 0300 R35L/0375N FG VV/// 04/03 Q1032 NOSIG

EXPIRED METARs :
  • 220130Z AUTO 14004KT 110V180 0400 0350 R35L/0400N FG VV/// 04/04 Q1032 TEMPO 0300 FG
  • 220100Z AUTO 15003KT 0400 0350 R35L/0400N FG VV/// 05/04 Q1032 TEMPO 0300 FG
  • 220030Z AUTO 17005KT 0350 0300 R35L/0350N FG VV/// 05/04 Q1032 NOSIG
  • 220000Z AUTO 16003KT 0300 R35L/0350N FG VV/// 05/04 Q1031 TEMPO 0400 FG
  • 212330Z AUTO 18004KT 150V210 0350 R35L/0450N FG VV/// 05/05 Q1031 NOSIG

TAF AMD TAF LFRD
Valid from the 22 at 00:00 until the 23 at 00:00 UTC


220011Z 2200/2224 15006KT 0800 FG VV///
TEMPO 2200/2209 0300 FG VV///
BECMG 2209/2211 CAVOK
BECMG 2222/2224 4000 BR
ATIS : +33 2 99 16 81 50
No reported NOTAMs for that airfield.



MET'MAP, your aeronautical weather chart ! - Copyright ORBIFLY December 2007 - Disclaimer

ORBIFLY MET'MAP TEAM :

Programming & Development : Alexandra Zaïnal
Concept & Development : Baudouin d'Aumeries
Co-Development & Prog : Marc-Olivier Méhu
Technical & hardware support : Manuel Goepfert

Contact : metmap@orbifly.com




SOURCES & CREDITS :

   NOAA